Aérodrome :
LOGIN :

S'inscrire | Disclaimer

   EN    FR    IT 

 










Légende :    VFR   VFR Marginal   IFR   IFR Intensif   IFR Très Intensif
Visi : 
Plafond : 
>= 8 km
>= 3000ft
5 à 8 km
1000 à 3000 ft
1500m à 5 km
500 à 1000 ft
800 à 1500m
200 à 500 ft
< 800m
< 200 ft
Symboles :   Orages  Brouillard  Fortes neiges  Fortes précipitations  Vent > 20 kt
SIGMETs :   Divers  Orages  Givrage  Turbulence  Onde Orograph.  Cendres Volcan.






- Altitude de l'aérodrome : 359 ft
- Code IATA : BVA


LFOB - Beauvais

DERNIER METAR :
  • 150500Z AUTO 22004KT 9999 BKN005 BKN010 BKN024 19/18 Q1015 TEMPO 2000 DZ

METARs EXPIRÉS :
  • 150430Z AUTO 23006KT 9999 OVC004 19/18 Q1015 TEMPO 2000 DZ
  • 150400Z AUTO 20004KT 9999 OVC006 19/18 Q1015 TEMPO 2000 DZ OVC002
  • 150330Z AUTO 21004KT 9999 OVC006 19/18 Q1015 TEMPO 2000 DZ OVC002
  • 150300Z AUTO 22005KT 9999 OVC007 19/18 Q1015 TEMPO 2000 DZ OVC002
  • 150230Z AUTO 23003KT 9999 OVC007 19/18 Q1015 TEMPO 2000 DZ OVC002

TAF TAF LFOB
Valide du 15 à 00h jusqu'au 16 à 00h UTC


142300Z 1500/1524 26006KT 9999 BKN030
BECMG 1500/1502 OVC006
TEMPO 1502/1509 2000 DZ OVC002
BECMG 1509/1511 BKN013
BECMG 1511/1513 BKN030
ATIS : +33 3 44 11 49 28



MET'MAP, la Météo Aéronautique d'un coup d'oeil ! - Copyright ORBIFLY Décembre 2007 - Disclaimer

ORBIFLY MET'MAP TEAM :

Programmation & Développement : Alexandra Zaïnal
Sur une idée originale de : Baudouin d'Aumeries
Assistance à la programmation : Marc-Olivier Méhu
Soutien technique & logistique : Manuel Goepfert

Contact : metmap@orbifly.com




SOURCES & CREDITS :

   NOAA